createdAt,value
2024-01-14T00:02:19.600Z,-0.80
2024-01-14T00:07:22.258Z,-0.78
2024-01-14T00:12:24.119Z,-0.78
2024-01-14T00:17:26.691Z,-0.78
2024-01-14T00:22:29.561Z,-0.75
2024-01-14T00:27:31.494Z,-0.71
2024-01-14T00:32:33.904Z,-0.65
2024-01-14T00:37:36.724Z,-0.59
2024-01-14T00:42:38.832Z,-0.53
2024-01-14T00:47:41.125Z,-0.49
2024-01-14T00:52:43.060Z,-0.44
2024-01-14T00:57:45.042Z,-0.41
2024-01-14T01:02:48.553Z,-0.38
2024-01-14T01:07:50.680Z,-0.34
2024-01-14T01:12:52.666Z,-0.34
2024-01-14T01:17:54.682Z,-0.34
2024-01-14T01:22:56.962Z,-0.33
2024-01-14T01:27:58.832Z,-0.32
2024-01-14T01:33:01.041Z,-0.27
2024-01-14T01:38:03.261Z,-0.25
2024-01-14T01:43:05.219Z,-0.24
2024-01-14T01:48:07.731Z,-0.20
2024-01-14T01:53:09.764Z,-0.20
2024-01-14T01:58:11.803Z,-0.19
2024-01-14T02:03:14.939Z,-0.18
2024-01-14T02:08:17.109Z,-0.17
2024-01-14T02:13:19.283Z,-0.15
2024-01-14T02:18:21.407Z,-0.15
2024-01-14T02:23:25.361Z,-0.14
2024-01-14T02:28:27.683Z,-0.14
2024-01-14T02:33:29.675Z,-0.14
2024-01-14T02:38:31.696Z,-0.13
2024-01-14T02:43:33.737Z,-0.14
2024-01-14T02:48:35.976Z,-0.14
2024-01-14T02:53:37.984Z,-0.15
2024-01-14T02:58:40.465Z,-0.14
2024-01-14T03:03:43.364Z,-0.12
2024-01-14T03:08:45.426Z,-0.10
2024-01-14T03:13:47.559Z,-0.08
2024-01-14T03:18:49.641Z,-0.10
2024-01-14T03:23:52.071Z,-0.13
2024-01-14T03:28:54.237Z,-0.14
2024-01-14T03:33:56.632Z,-0.17
2024-01-14T03:38:58.884Z,-0.18
2024-01-14T03:44:00.937Z,-0.21
2024-01-14T03:49:03.616Z,-0.24
2024-01-14T03:54:05.798Z,-0.28
2024-01-14T03:59:08.184Z,-0.29
2024-01-14T04:04:10.592Z,-0.33
2024-01-14T04:09:12.844Z,-0.38
2024-01-14T04:14:14.864Z,-0.43
2024-01-14T04:19:16.938Z,-0.44
2024-01-14T04:24:19.031Z,-0.43
2024-01-14T04:29:20.954Z,-0.41
2024-01-14T04:34:22.996Z,-0.38
2024-01-14T04:39:25.242Z,-0.38
2024-01-14T04:44:27.095Z,-0.37
2024-01-14T04:49:29.435Z,-0.34
2024-01-14T04:54:31.750Z,-0.30
2024-01-14T04:59:33.947Z,-0.25
2024-01-14T05:04:35.835Z,-0.19
2024-01-14T05:09:37.950Z,-0.15
2024-01-14T05:14:40.001Z,-0.12
2024-01-14T05:19:42.551Z,-0.14
2024-01-14T05:24:45.596Z,-0.17
2024-01-14T05:29:47.470Z,-0.17
2024-01-14T05:34:49.551Z,-0.17
2024-01-14T05:39:51.634Z,-0.15
2024-01-14T05:44:53.824Z,-0.13
2024-01-14T05:49:56.026Z,-0.11
2024-01-14T05:54:58.237Z,-0.09
2024-01-14T06:00:00.541Z,-0.06
2024-01-14T06:05:02.963Z,-0.05
2024-01-14T06:10:06.677Z,-0.04
2024-01-14T06:15:09.702Z,-0.06
2024-01-14T06:20:12.409Z,-0.07
2024-01-14T06:25:14.685Z,-0.08
2024-01-14T06:30:16.937Z,-0.10
2024-01-14T06:35:25.591Z,-0.12
2024-01-14T06:40:32.175Z,-0.11
2024-01-14T06:45:41.663Z,-0.06
2024-01-14T06:50:43.824Z,0.01
2024-01-14T06:55:46.492Z,0.04
2024-01-14T07:00:49.350Z,0.08
2024-01-14T07:05:58.552Z,0.15
2024-01-14T07:11:02.382Z,0.21
2024-01-14T07:16:05.333Z,0.25
2024-01-14T07:21:12.513Z,0.29
2024-01-14T07:26:16.801Z,0.31
2024-01-14T07:31:23.152Z,0.35
2024-01-14T07:36:25.913Z,0.40
2024-01-14T07:41:27.982Z,0.42
2024-01-14T07:46:30.815Z,0.43
2024-01-14T07:51:33.640Z,0.46
2024-01-14T07:56:35.971Z,0.48
2024-01-14T08:01:38.663Z,0.50
2024-01-14T08:06:40.900Z,0.54
2024-01-14T08:11:42.874Z,0.55
2024-01-14T08:16:44.840Z,0.59
2024-01-14T08:21:47.004Z,0.69
2024-01-14T08:26:49.146Z,0.81
2024-01-14T08:31:51.410Z,0.90
2024-01-14T08:36:53.320Z,0.97
2024-01-14T08:41:56.244Z,0.96
2024-01-14T08:46:58.624Z,1.01
2024-01-14T08:52:02.944Z,1.13
2024-01-14T08:57:06.820Z,1.24
2024-01-14T09:02:09.283Z,1.37
2024-01-14T09:07:12.656Z,1.49
2024-01-14T09:12:15.065Z,1.65
2024-01-14T09:17:17.450Z,1.70
2024-01-14T09:22:19.796Z,1.72
2024-01-14T09:27:21.820Z,1.66
2024-01-14T09:32:23.929Z,1.61
2024-01-14T09:37:26.141Z,1.57
2024-01-14T09:42:36.063Z,1.51
2024-01-14T09:47:39.832Z,1.59
2024-01-14T09:52:43.045Z,1.69
2024-01-14T09:57:51.231Z,1.77
2024-01-14T10:02:53.685Z,1.80
2024-01-14T10:07:56.253Z,1.81
2024-01-14T10:12:58.610Z,1.85
2024-01-14T10:18:01.254Z,1.97
2024-01-14T10:23:04.647Z,2.22
2024-01-14T10:28:06.628Z,2.60
2024-01-14T10:33:19.842Z,2.88
2024-01-14T10:38:25.338Z,2.85
2024-01-14T10:43:27.964Z,2.69
2024-01-14T10:48:30.315Z,2.55
2024-01-14T10:53:38.588Z,2.40
2024-01-14T10:58:42.805Z,2.35
2024-01-14T11:03:49.444Z,2.26
2024-01-14T11:08:54.223Z,2.19
2024-01-14T11:14:22.519Z,2.20
2024-01-14T11:19:36.851Z,2.22
2024-01-14T11:24:40.537Z,2.27
2024-01-14T11:29:42.835Z,2.28
2024-01-14T11:34:48.279Z,2.36
2024-01-14T11:39:51.343Z,2.45
2024-01-14T11:44:54.523Z,2.61
2024-01-14T11:49:56.895Z,2.71
2024-01-14T11:54:59.063Z,2.67
2024-01-14T12:00:01.917Z,2.59
2024-01-14T12:05:23.180Z,2.53
2024-01-14T12:10:25.746Z,2.49
2024-01-14T12:15:31.069Z,2.47
2024-01-14T12:20:33.296Z,2.44
2024-01-14T12:25:36.361Z,2.44
2024-01-14T12:30:38.836Z,2.43
2024-01-14T12:35:41.020Z,2.41
2024-01-14T12:40:43.613Z,2.40
2024-01-14T12:45:50.426Z,2.44
2024-01-14T12:51:00.027Z,2.45
2024-01-14T12:56:14.829Z,2.42
2024-01-14T13:01:17.316Z,2.41
2024-01-14T13:06:19.763Z,2.36
2024-01-14T13:11:22.062Z,2.24
2024-01-14T13:16:24.846Z,2.12
2024-01-14T13:21:26.876Z,2.03
2024-01-14T13:26:30.468Z,1.90
2024-01-14T13:31:33.623Z,1.81
2024-01-14T13:36:36.706Z,1.72
2024-01-14T13:41:39.296Z,1.61
2024-01-14T13:46:41.676Z,1.52
2024-01-14T13:51:44.783Z,1.48
2024-01-14T13:56:47.027Z,1.51
2024-01-14T14:01:49.719Z,1.55
2024-01-14T14:06:52.062Z,1.56
2024-01-14T14:11:55.071Z,1.52
2024-01-14T14:16:57.995Z,1.51
2024-01-14T14:22:01.819Z,1.47
2024-01-14T14:27:04.581Z,1.43
2024-01-14T14:32:10.141Z,1.42
2024-01-14T14:37:12.038Z,1.38
2024-01-14T14:42:14.026Z,1.34
2024-01-14T14:47:18.455Z,1.32
2024-01-14T14:52:21.468Z,1.27
2024-01-14T14:57:23.601Z,1.23
2024-01-14T15:02:26.250Z,1.21
2024-01-14T15:07:28.898Z,1.19
2024-01-14T15:12:31.067Z,1.15
2024-01-14T15:17:33.296Z,1.15
2024-01-14T15:22:35.257Z,1.14
2024-01-14T15:27:38.547Z,1.13
2024-01-14T15:32:40.903Z,1.12
2024-01-14T15:37:43.373Z,1.13
2024-01-14T15:42:46.962Z,1.14
2024-01-14T15:47:49.095Z,1.14
2024-01-14T15:52:51.305Z,1.15
2024-01-14T15:57:53.849Z,1.14
2024-01-14T16:02:55.952Z,1.13
2024-01-14T16:08:03.719Z,1.11
2024-01-14T16:13:05.690Z,1.09
2024-01-14T16:18:08.613Z,1.06
2024-01-14T16:23:13.919Z,1.07
2024-01-14T16:28:16.382Z,1.06
2024-01-14T16:33:19.136Z,0.99
2024-01-14T16:38:22.985Z,0.94
2024-01-14T16:43:28.648Z,0.90
2024-01-14T16:48:35.096Z,0.91
2024-01-14T16:53:40.065Z,0.94
2024-01-14T16:58:44.809Z,0.94
2024-01-14T17:03:50.914Z,0.97
2024-01-14T17:08:55.999Z,0.97
2024-01-14T17:14:08.624Z,0.98
2024-01-14T17:19:11.244Z,0.98
2024-01-14T17:24:13.934Z,0.99
2024-01-14T17:29:24.673Z,1.00
2024-01-14T17:34:27.286Z,1.02
2024-01-14T17:39:30.738Z,1.03
2024-01-14T17:44:33.306Z,1.05
2024-01-14T17:49:36.086Z,1.06
2024-01-14T17:54:41.164Z,1.09
2024-01-14T17:59:43.208Z,1.10
2024-01-14T18:04:45.819Z,1.11
2024-01-14T18:09:50.424Z,1.10
2024-01-14T18:14:52.346Z,1.12
2024-01-14T18:19:56.100Z,1.13
2024-01-14T18:25:00.704Z,1.13
2024-01-14T18:30:04.854Z,1.14
2024-01-14T18:35:09.616Z,1.15
2024-01-14T18:40:14.379Z,1.15
2024-01-14T18:45:16.909Z,1.18
2024-01-14T18:50:19.262Z,1.20
2024-01-14T18:55:22.308Z,1.19
2024-01-14T19:00:24.602Z,1.20
2024-01-14T19:05:28.345Z,1.21
2024-01-14T19:10:31.844Z,1.20
2024-01-14T19:15:35.038Z,1.18
2024-01-14T19:20:39.431Z,1.16
2024-01-14T19:25:43.469Z,1.14
2024-01-14T19:30:49.718Z,1.14
2024-01-14T19:35:54.841Z,1.14
2024-01-14T19:40:58.943Z,1.13
2024-01-14T19:46:01.848Z,1.11
2024-01-14T19:51:07.925Z,1.10
2024-01-14T19:56:10.958Z,1.10
2024-01-14T20:01:14.953Z,1.09
2024-01-14T20:06:24.552Z,1.07
2024-01-14T20:11:32.504Z,1.06
2024-01-14T20:16:36.628Z,1.07
2024-01-14T20:21:38.962Z,1.05
2024-01-14T20:26:41.388Z,1.06
2024-01-14T20:31:44.292Z,1.05
2024-01-14T20:36:46.798Z,1.04
2024-01-14T20:41:49.272Z,1.04
2024-01-14T20:46:53.686Z,1.03
2024-01-14T20:51:55.921Z,1.02
2024-01-14T20:56:59.143Z,1.01
2024-01-14T21:02:00.911Z,0.98
2024-01-14T21:07:02.948Z,0.95
2024-01-14T21:12:07.002Z,0.92
2024-01-14T21:17:09.414Z,0.92
2024-01-14T21:22:11.347Z,0.90
2024-01-14T21:27:14.038Z,0.87
2024-01-14T21:32:16.005Z,0.84
2024-01-14T21:37:18.806Z,0.81
2024-01-14T21:42:20.703Z,0.78
2024-01-14T21:47:22.842Z,0.76
2024-01-14T21:52:24.928Z,0.77
2024-01-14T21:57:27.286Z,0.75
2024-01-14T22:02:29.343Z,0.74
2024-01-14T22:07:38.253Z,0.74
2024-01-14T22:12:40.178Z,0.73
2024-01-14T22:17:42.220Z,0.73
2024-01-14T22:22:44.254Z,0.70
2024-01-14T22:27:46.472Z,0.69
2024-01-14T22:32:48.779Z,0.67
2024-01-14T22:37:50.910Z,0.67
2024-01-14T22:42:58.012Z,0.67
2024-01-14T22:48:00.109Z,0.64
2024-01-14T22:53:02.399Z,0.62
2024-01-14T22:58:05.958Z,0.61
2024-01-14T23:03:07.893Z,0.61
2024-01-14T23:08:10.124Z,0.60
2024-01-14T23:13:12.812Z,0.60
2024-01-14T23:18:15.418Z,0.59
2024-01-14T23:23:17.388Z,0.59
2024-01-14T23:28:19.433Z,0.60
2024-01-14T23:33:21.400Z,0.61
2024-01-14T23:38:23.426Z,0.60
2024-01-14T23:43:27.357Z,0.59
2024-01-14T23:48:29.539Z,0.57
2024-01-14T23:53:31.773Z,0.56
2024-01-14T23:58:34.922Z,0.53
